sensor_id;sensor_type;location;lat;lon;timestamp;pressure;altitude;pressure_sealevel;temperature;humidity
80568;BME280;69922;45.656;25.586;2023-10-13T00:01:03;95604.70;;;9.25;80.87
80568;BME280;69922;45.656;25.586;2023-10-13T00:02:16;95600.61;;;9.23;80.68
80568;BME280;69922;45.656;25.586;2023-10-13T00:03:23;95599.58;;;9.21;80.99
80568;BME280;69922;45.656;25.586;2023-10-13T00:04:26;95595.25;;;9.20;80.90
80568;BME280;69922;45.656;25.586;2023-10-13T00:05:34;95594.86;;;9.19;80.76
80568;BME280;69922;45.656;25.586;2023-10-13T00:06:38;95594.25;;;9.18;81.31
80568;BME280;69922;45.656;25.586;2023-10-13T00:07:41;95597.63;;;9.17;81.40
80568;BME280;69922;45.656;25.586;2023-10-13T00:08:45;95592.14;;;9.16;81.19
80568;BME280;69922;45.656;25.586;2023-10-13T00:09:49;95595.80;;;9.16;80.85
80568;BME280;69922;45.656;25.586;2023-10-13T00:10:52;95597.45;;;9.15;81.13
80568;BME280;69922;45.656;25.586;2023-10-13T00:11:55;95598.05;;;9.15;80.98
80568;BME280;69922;45.656;25.586;2023-10-13T00:12:59;95596.06;;;9.13;81.21
80568;BME280;69922;45.656;25.586;2023-10-13T00:14:14;95599.23;;;9.13;81.12
80568;BME280;69922;45.656;25.586;2023-10-13T00:15:20;95599.92;;;9.12;80.88
80568;BME280;69922;45.656;25.586;2023-10-13T00:16:31;95598.86;;;9.11;80.85
80568;BME280;69922;45.656;25.586;2023-10-13T00:17:38;95595.99;;;9.08;81.01
80568;BME280;69922;45.656;25.586;2023-10-13T00:18:45;95594.67;;;9.07;81.03
80568;BME280;69922;45.656;25.586;2023-10-13T00:19:49;95597.09;;;9.05;80.97
80568;BME280;69922;45.656;25.586;2023-10-13T00:20:55;95595.83;;;9.04;81.07
80568;BME280;69922;45.656;25.586;2023-10-13T00:22:00;95595.79;;;9.03;81.01
80568;BME280;69922;45.656;25.586;2023-10-13T00:23:12;95597.83;;;9.02;80.90
80568;BME280;69922;45.656;25.586;2023-10-13T00:24:16;95598.88;;;9.01;80.91
80568;BME280;69922;45.656;25.586;2023-10-13T00:25:26;95599.19;;;9.00;80.64
80568;BME280;69922;45.656;25.586;2023-10-13T00:26:31;95604.48;;;8.98;80.89
80568;BME280;69922;45.656;25.586;2023-10-13T00:27:39;95602.77;;;8.97;80.92
80568;BME280;69922;45.656;25.586;2023-10-13T00:28:44;95598.88;;;8.96;80.86
80568;BME280;69922;45.656;25.586;2023-10-13T00:29:53;95606.20;;;8.95;80.87
80568;BME280;69922;45.656;25.586;2023-10-13T00:31:17;95604.75;;;8.94;81.07
80568;BME280;69922;45.656;25.586;2023-10-13T00:32:20;95604.34;;;8.92;81.16
80568;BME280;69922;45.656;25.586;2023-10-13T00:33:27;95608.05;;;8.92;81.34
80568;BME280;69922;45.656;25.586;2023-10-13T00:34:31;95607.04;;;8.90;81.14
80568;BME280;69922;45.656;25.586;2023-10-13T00:35:37;95604.52;;;8.89;81.07
80568;BME280;69922;45.656;25.586;2023-10-13T00:36:46;95605.27;;;8.87;81.02
80568;BME280;69922;45.656;25.586;2023-10-13T00:38:13;95607.55;;;8.84;80.96
80568;BME280;69922;45.656;25.586;2023-10-13T00:39:16;95608.67;;;8.82;81.47
80568;BME280;69922;45.656;25.586;2023-10-13T00:40:24;95608.49;;;8.81;81.20
80568;BME280;69922;45.656;25.586;2023-10-13T00:41:34;95605.23;;;8.80;81.24
80568;BME280;69922;45.656;25.586;2023-10-13T00:42:56;95605.98;;;8.78;81.16
80568;BME280;69922;45.656;25.586;2023-10-13T00:44:20;95613.41;;;8.77;81.16
80568;BME280;69922;45.656;25.586;2023-10-13T00:45:41;95609.67;;;8.76;81.58
80568;BME280;69922;45.656;25.586;2023-10-13T00:46:47;95612.56;;;8.74;81.50
80568;BME280;69922;45.656;25.586;2023-10-13T00:47:53;95610.98;;;8.75;81.60
80568;BME280;69922;45.656;25.586;2023-10-13T00:49:01;95610.06;;;8.75;81.63
80568;BME280;69922;45.656;25.586;2023-10-13T00:50:07;95610.42;;;8.76;81.55
80568;BME280;69922;45.656;25.586;2023-10-13T00:51:18;95611.20;;;8.76;81.78
80568;BME280;69922;45.656;25.586;2023-10-13T00:52:42;95612.73;;;8.75;81.56
80568;BME280;69922;45.656;25.586;2023-10-13T00:53:51;95613.86;;;8.74;81.72
80568;BME280;69922;45.656;25.586;2023-10-13T00:54:54;95619.04;;;8.73;81.77
80568;BME280;69922;45.656;25.586;2023-10-13T00:55:59;95614.70;;;8.72;81.56
80568;BME280;69922;45.656;25.586;2023-10-13T00:57:09;95616.77;;;8.72;81.55
80568;BME280;69922;45.656;25.586;2023-10-13T00:58:31;95615.92;;;8.71;81.85
80568;BME280;69922;45.656;25.586;2023-10-13T00:59:37;95624.41;;;8.71;81.54
80568;BME280;69922;45.656;25.586;2023-10-13T01:00:49;95622.68;;;8.70;81.52
80568;BME280;69922;45.656;25.586;2023-10-13T01:01:59;95618.93;;;8.70;81.50
80568;BME280;69922;45.656;25.586;2023-10-13T01:03:25;95622.97;;;8.70;81.70
80568;BME280;69922;45.656;25.586;2023-10-13T01:04:30;95618.87;;;8.70;81.88
80568;BME280;69922;45.656;25.586;2023-10-13T01:05:37;95620.56;;;8.70;82.01
80568;BME280;69922;45.656;25.586;2023-10-13T01:06:42;95622.48;;;8.69;81.75
80568;BME280;69922;45.656;25.586;2023-10-13T01:07:46;95625.80;;;8.69;81.50
80568;BME280;69922;45.656;25.586;2023-10-13T01:09:02;95622.38;;;8.69;81.76
80568;BME280;69922;45.656;25.586;2023-10-13T01:10:22;95626.73;;;8.69;81.87
80568;BME280;69922;45.656;25.586;2023-10-13T01:11:31;95624.91;;;8.67;81.50
80568;BME280;69922;45.656;25.586;2023-10-13T01:12:35;95626.30;;;8.66;81.56
80568;BME280;69922;45.656;25.586;2023-10-13T01:13:39;95624.70;;;8.64;81.83
80568;BME280;69922;45.656;25.586;2023-10-13T01:14:45;95622.21;;;8.64;81.80
80568;BME280;69922;45.656;25.586;2023-10-13T01:15:51;95625.54;;;8.63;82.03
80568;BME280;69922;45.656;25.586;2023-10-13T01:16:57;95625.30;;;8.63;82.02
80568;BME280;69922;45.656;25.586;2023-10-13T01:18:09;95619.42;;;8.64;82.12
80568;BME280;69922;45.656;25.586;2023-10-13T01:19:16;95621.04;;;8.65;81.90
80568;BME280;69922;45.656;25.586;2023-10-13T01:20:32;95622.63;;;8.64;81.78
80568;BME280;69922;45.656;25.586;2023-10-13T01:21:36;95622.09;;;8.64;81.69
80568;BME280;69922;45.656;25.586;2023-10-13T01:22:40;95620.45;;;8.64;81.86
80568;BME280;69922;45.656;25.586;2023-10-13T01:23:47;95620.17;;;8.65;81.69
80568;BME280;69922;45.656;25.586;2023-10-13T01:24:51;95616.42;;;8.64;81.69
80568;BME280;69922;45.656;25.586;2023-10-13T01:25:55;95618.39;;;8.64;81.52
80568;BME280;69922;45.656;25.586;2023-10-13T01:27:03;95620.90;;;8.64;81.78
80568;BME280;69922;45.656;25.586;2023-10-13T01:28:18;95623.15;;;8.63;81.63
80568;BME280;69922;45.656;25.586;2023-10-13T01:29:22;95623.77;;;8.61;81.53
80568;BME280;69922;45.656;25.586;2023-10-13T01:30:32;95622.70;;;8.61;81.68
80568;BME280;69922;45.656;25.586;2023-10-13T01:31:36;95618.79;;;8.60;81.52
80568;BME280;69922;45.656;25.586;2023-10-13T01:32:40;95619.60;;;8.59;81.59
80568;BME280;69922;45.656;25.586;2023-10-13T01:33:51;95615.09;;;8.59;81.52
80568;BME280;69922;45.656;25.586;2023-10-13T01:34:59;95616.17;;;8.59;81.75
80568;BME280;69922;45.656;25.586;2023-10-13T01:36:09;95614.60;;;8.59;81.77
80568;BME280;69922;45.656;25.586;2023-10-13T01:37:14;95614.71;;;8.60;81.61
80568;BME280;69922;45.656;25.586;2023-10-13T01:38:24;95612.42;;;8.60;81.70
80568;BME280;69922;45.656;25.586;2023-10-13T01:39:31;95611.77;;;8.60;81.44
80568;BME280;69922;45.656;25.586;2023-10-13T01:40:35;95616.07;;;8.60;81.60
80568;BME280;69922;45.656;25.586;2023-10-13T01:41:39;95620.16;;;8.59;81.52
80568;BME280;69922;45.656;25.586;2023-10-13T01:42:43;95618.05;;;8.58;81.54
80568;BME280;69922;45.656;25.586;2023-10-13T01:43:49;95618.05;;;8.58;81.51
80568;BME280;69922;45.656;25.586;2023-10-13T01:44:52;95619.45;;;8.57;81.32
80568;BME280;69922;45.656;25.586;2023-10-13T01:46:01;95612.95;;;8.55;81.42
80568;BME280;69922;45.656;25.586;2023-10-13T01:47:06;95614.00;;;8.54;81.77
80568;BME280;69922;45.656;25.586;2023-10-13T01:48:10;95614.20;;;8.52;81.39
80568;BME280;69922;45.656;25.586;2023-10-13T01:49:14;95620.38;;;8.51;81.39
80568;BME280;69922;45.656;25.586;2023-10-13T01:50:21;95615.35;;;8.49;81.30
80568;BME280;69922;45.656;25.586;2023-10-13T01:51:31;95615.20;;;8.47;81.50
80568;BME280;69922;45.656;25.586;2023-10-13T01:52:35;95611.38;;;8.45;81.44
80568;BME280;69922;45.656;25.586;2023-10-13T01:53:39;95615.20;;;8.45;81.69
80568;BME280;69922;45.656;25.586;2023-10-13T01:54:43;95618.79;;;8.45;81.52
80568;BME280;69922;45.656;25.586;2023-10-13T01:55:47;95618.20;;;8.45;81.38
80568;BME280;69922;45.656;25.586;2023-10-13T01:56:54;95615.70;;;8.45;81.34
80568;BME280;69922;45.656;25.586;2023-10-13T01:57:58;95611.08;;;8.44;81.38
80568;BME280;69922;45.656;25.586;2023-10-13T01:59:02;95615.79;;;8.43;81.23
80568;BME280;69922;45.656;25.586;2023-10-13T02:00:08;95623.40;;;8.42;81.30
80568;BME280;69922;45.656;25.586;2023-10-13T02:01:22;95628.93;;;8.41;81.57
80568;BME280;69922;45.656;25.586;2023-10-13T02:02:31;95625.33;;;8.39;81.57
80568;BME280;69922;45.656;25.586;2023-10-13T02:03:35;95625.66;;;8.38;81.78
80568;BME280;69922;45.656;25.586;2023-10-13T02:04:46;95629.98;;;8.36;81.58
80568;BME280;69922;45.656;25.586;2023-10-13T02:05:53;95623.65;;;8.35;81.64
80568;BME280;69922;45.656;25.586;2023-10-13T02:07:02;95629.97;;;8.34;81.70
80568;BME280;69922;45.656;25.586;2023-10-13T02:08:06;95634.80;;;8.32;81.84
80568;BME280;69922;45.656;25.586;2023-10-13T02:09:11;95634.60;;;8.32;81.81
80568;BME280;69922;45.656;25.586;2023-10-13T02:10:21;95634.40;;;8.30;81.84
80568;BME280;69922;45.656;25.586;2023-10-13T02:11:28;95632.63;;;8.29;82.09
80568;BME280;69922;45.656;25.586;2023-10-13T02:12:34;95632.33;;;8.27;82.30
80568;BME280;69922;45.656;25.586;2023-10-13T02:13:45;95629.40;;;8.27;82.28
80568;BME280;69922;45.656;25.586;2023-10-13T02:14:57;95625.38;;;8.26;81.98
80568;BME280;69922;45.656;25.586;2023-10-13T02:16:06;95622.90;;;8.25;82.12
80568;BME280;69922;45.656;25.586;2023-10-13T02:17:11;95625.83;;;8.25;82.11
80568;BME280;69922;45.656;25.586;2023-10-13T02:18:21;95624.33;;;8.24;82.14
80568;BME280;69922;45.656;25.586;2023-10-13T02:19:45;95622.86;;;8.23;82.12
80568;BME280;69922;45.656;25.586;2023-10-13T02:20:50;95627.92;;;8.22;82.40
80568;BME280;69922;45.656;25.586;2023-10-13T02:21:59;95630.70;;;8.22;82.23
80568;BME280;69922;45.656;25.586;2023-10-13T02:23:09;95636.31;;;8.22;82.12
80568;BME280;69922;45.656;25.586;2023-10-13T02:24:15;95638.70;;;8.22;82.17
80568;BME280;69922;45.656;25.586;2023-10-13T02:25:22;95629.02;;;8.22;82.13
80568;BME280;69922;45.656;25.586;2023-10-13T02:26:44;95628.73;;;8.23;82.27
80568;BME280;69922;45.656;25.586;2023-10-13T02:27:49;95627.66;;;8.23;82.13
80568;BME280;69922;45.656;25.586;2023-10-13T02:29:02;95619.86;;;8.24;82.11
80568;BME280;69922;45.656;25.586;2023-10-13T02:30:15;95619.05;;;8.24;82.10
80568;BME280;69922;45.656;25.586;2023-10-13T02:31:28;95621.70;;;8.25;82.12
80568;BME280;69922;45.656;25.586;2023-10-13T02:32:31;95622.66;;;8.26;81.93
80568;BME280;69922;45.656;25.586;2023-10-13T02:33:36;95620.58;;;8.26;81.73
80568;BME280;69922;45.656;25.586;2023-10-13T02:34:48;95629.06;;;8.26;82.06
80568;BME280;69922;45.656;25.586;2023-10-13T02:35:51;95631.46;;;8.26;82.24
80568;BME280;69922;45.656;25.586;2023-10-13T02:36:57;95631.90;;;8.26;81.98
80568;BME280;69922;45.656;25.586;2023-10-13T02:38:01;95636.70;;;8.25;82.20
80568;BME280;69922;45.656;25.586;2023-10-13T02:39:13;95638.55;;;8.25;82.07
80568;BME280;69922;45.656;25.586;2023-10-13T02:40:21;95647.04;;;8.26;82.07
80568;BME280;69922;45.656;25.586;2023-10-13T02:41:27;95652.27;;;8.26;82.03
80568;BME280;69922;45.656;25.586;2023-10-13T02:42:31;95652.08;;;8.27;82.22
80568;BME280;69922;45.656;25.586;2023-10-13T02:43:36;95652.67;;;8.27;82.16
80568;BME280;69922;45.656;25.586;2023-10-13T02:44:40;95655.48;;;8.28;81.86
80568;BME280;69922;45.656;25.586;2023-10-13T02:45:53;95655.52;;;8.30;82.21
80568;BME280;69922;45.656;25.586;2023-10-13T02:47:02;95660.08;;;8.30;82.29
80568;BME280;69922;45.656;25.586;2023-10-13T02:48:16;95662.36;;;8.31;82.19
80568;BME280;69922;45.656;25.586;2023-10-13T02:49:26;95668.46;;;8.30;82.32
80568;BME280;69922;45.656;25.586;2023-10-13T02:50:31;95670.36;;;8.31;82.13
80568;BME280;69922;45.656;25.586;2023-10-13T02:51:37;95672.42;;;8.31;82.18
80568;BME280;69922;45.656;25.586;2023-10-13T02:52:40;95681.39;;;8.32;81.88
80568;BME280;69922;45.656;25.586;2023-10-13T02:53:45;95675.35;;;8.31;81.79
80568;BME280;69922;45.656;25.586;2023-10-13T02:54:53;95678.01;;;8.32;81.65
80568;BME280;69922;45.656;25.586;2023-10-13T02:55:57;95676.23;;;8.31;81.72
80568;BME280;69922;45.656;25.586;2023-10-13T02:57:08;95674.91;;;8.29;81.53
80568;BME280;69922;45.656;25.586;2023-10-13T02:58:12;95673.80;;;8.27;81.55
80568;BME280;69922;45.656;25.586;2023-10-13T02:59:19;95670.04;;;8.27;81.53
80568;BME280;69922;45.656;25.586;2023-10-13T03:00:37;95670.93;;;8.26;81.54
80568;BME280;69922;45.656;25.586;2023-10-13T03:01:44;95666.89;;;8.26;81.64
80568;BME280;69922;45.656;25.586;2023-10-13T03:02:47;95662.27;;;8.26;81.54
80568;BME280;69922;45.656;25.586;2023-10-13T03:04:05;95664.98;;;8.26;81.50
80568;BME280;69922;45.656;25.586;2023-10-13T03:05:12;95670.70;;;8.26;81.62
80568;BME280;69922;45.656;25.586;2023-10-13T03:06:18;95667.94;;;8.25;81.26
80568;BME280;69922;45.656;25.586;2023-10-13T03:07:28;95665.29;;;8.24;81.37
80568;BME280;69922;45.656;25.586;2023-10-13T03:08:32;95667.70;;;8.24;81.39
80568;BME280;69922;45.656;25.586;2023-10-13T03:09:36;95667.59;;;8.24;81.28
80568;BME280;69922;45.656;25.586;2023-10-13T03:10:41;95671.03;;;8.23;81.54
80568;BME280;69922;45.656;25.586;2023-10-13T03:11:51;95667.00;;;8.23;81.56
80568;BME280;69922;45.656;25.586;2023-10-13T03:12:55;95669.28;;;8.22;81.52
80568;BME280;69922;45.656;25.586;2023-10-13T03:13:59;95665.36;;;8.22;81.65
80568;BME280;69922;45.656;25.586;2023-10-13T03:15:10;95666.79;;;8.22;81.51
80568;BME280;69922;45.656;25.586;2023-10-13T03:16:34;95664.65;;;8.23;81.52
80568;BME280;69922;45.656;25.586;2023-10-13T03:17:39;95661.98;;;8.23;81.62
80568;BME280;69922;45.656;25.586;2023-10-13T03:18:48;95662.56;;;8.25;81.36
80568;BME280;69922;45.656;25.586;2023-10-13T03:19:57;95655.31;;;8.25;81.80
80568;BME280;69922;45.656;25.586;2023-10-13T03:21:01;95659.77;;;8.25;81.60
80568;BME280;69922;45.656;25.586;2023-10-13T03:22:10;95661.83;;;8.26;81.66
80568;BME280;69922;45.656;25.586;2023-10-13T03:23:20;95661.72;;;8.27;81.79
80568;BME280;69922;45.656;25.586;2023-10-13T03:24:23;95660.61;;;8.28;82.09
80568;BME280;69922;45.656;25.586;2023-10-13T03:25:37;95659.24;;;8.28;81.97
80568;BME280;69922;45.656;25.586;2023-10-13T03:26:47;95656.64;;;8.27;82.01
80568;BME280;69922;45.656;25.586;2023-10-13T03:27:58;95651.48;;;8.27;81.90
80568;BME280;69922;45.656;25.586;2023-10-13T03:29:05;95650.84;;;8.27;81.94
80568;BME280;69922;45.656;25.586;2023-10-13T03:30:19;95650.44;;;8.27;81.97
80568;BME280;69922;45.656;25.586;2023-10-13T03:31:25;95657.09;;;8.27;82.04
80568;BME280;69922;45.656;25.586;2023-10-13T03:32:32;95660.55;;;8.28;82.17
80568;BME280;69922;45.656;25.586;2023-10-13T03:33:37;95658.09;;;8.28;82.12
80568;BME280;69922;45.656;25.586;2023-10-13T03:34:42;95662.65;;;8.29;82.24
80568;BME280;69922;45.656;25.586;2023-10-13T03:36:09;95660.30;;;8.30;82.00
80568;BME280;69922;45.656;25.586;2023-10-13T03:37:12;95659.38;;;8.30;82.19
80568;BME280;69922;45.656;25.586;2023-10-13T03:38:22;95657.50;;;8.31;82.31
80568;BME280;69922;45.656;25.586;2023-10-13T03:39:32;95657.75;;;8.33;82.11
80568;BME280;69922;45.656;25.586;2023-10-13T03:40:35;95656.01;;;8.33;82.04
80568;BME280;69922;45.656;25.586;2023-10-13T03:41:39;95653.63;;;8.34;82.01
80568;BME280;69922;45.656;25.586;2023-10-13T03:42:45;95647.31;;;8.35;82.06
80568;BME280;69922;45.656;25.586;2023-10-13T03:44:01;95651.04;;;8.36;82.10
80568;BME280;69922;45.656;25.586;2023-10-13T03:45:13;95647.98;;;8.37;81.84
80568;BME280;69922;45.656;25.586;2023-10-13T03:46:17;95649.99;;;8.37;81.75
80568;BME280;69922;45.656;25.586;2023-10-13T03:47:25;95650.55;;;8.37;82.00
80568;BME280;69922;45.656;25.586;2023-10-13T03:48:35;95650.42;;;8.38;82.11
80568;BME280;69922;45.656;25.586;2023-10-13T03:49:58;95644.26;;;8.39;81.92
80568;BME280;69922;45.656;25.586;2023-10-13T03:51:26;95643.59;;;8.39;81.67
80568;BME280;69922;45.656;25.586;2023-10-13T03:52:33;95642.50;;;8.40;81.69
80568;BME280;69922;45.656;25.586;2023-10-13T03:53:40;95643.15;;;8.40;82.14
80568;BME280;69922;45.656;25.586;2023-10-13T03:54:56;95644.80;;;8.39;82.09
80568;BME280;69922;45.656;25.586;2023-10-13T03:56:05;95643.91;;;8.41;82.29
80568;BME280;69922;45.656;25.586;2023-10-13T03:57:36;95644.84;;;8.40;81.99
80568;BME280;69922;45.656;25.586;2023-10-13T03:58:44;95648.74;;;8.41;82.15
80568;BME280;69922;45.656;25.586;2023-10-13T03:59:52;95644.95;;;8.41;82.17
80568;BME280;69922;45.656;25.586;2023-10-13T04:00:56;95648.95;;;8.42;82.30
80568;BME280;69922;45.656;25.586;2023-10-13T04:02:00;95648.23;;;8.41;82.26
80568;BME280;69922;45.656;25.586;2023-10-13T04:03:07;95647.29;;;8.42;82.10
80568;BME280;69922;45.656;25.586;2023-10-13T04:04:20;95642.88;;;8.43;82.59
80568;BME280;69922;45.656;25.586;2023-10-13T04:05:36;95647.52;;;8.43;82.44
80568;BME280;69922;45.656;25.586;2023-10-13T04:06:40;95647.14;;;8.45;82.41
80568;BME280;69922;45.656;25.586;2023-10-13T04:07:54;95642.43;;;8.47;82.10
80568;BME280;69922;45.656;25.586;2023-10-13T04:09:23;95642.92;;;8.50;82.15
80568;BME280;69922;45.656;25.586;2023-10-13T04:10:33;95644.20;;;8.52;82.18
80568;BME280;69922;45.656;25.586;2023-10-13T04:11:55;95638.50;;;8.54;81.99
80568;BME280;69922;45.656;25.586;2023-10-13T04:13:05;95643.91;;;8.56;82.01
80568;BME280;69922;45.656;25.586;2023-10-13T04:14:27;95651.91;;;8.59;81.84
80568;BME280;69922;45.656;25.586;2023-10-13T04:15:50;95658.02;;;8.61;81.68
80568;BME280;69922;45.656;25.586;2023-10-13T04:17:13;95659.15;;;8.62;81.69
80568;BME280;69922;45.656;25.586;2023-10-13T04:18:27;95660.19;;;8.64;81.88
80568;BME280;69922;45.656;25.586;2023-10-13T04:19:52;95657.78;;;8.65;81.56
80568;BME280;69922;45.656;25.586;2023-10-13T04:21:09;95654.75;;;8.67;81.78
80568;BME280;69922;45.656;25.586;2023-10-13T04:22:32;95657.35;;;8.69;81.48
80568;BME280;69922;45.656;25.586;2023-10-13T04:23:54;95658.79;;;8.70;81.61
80568;BME280;69922;45.656;25.586;2023-10-13T04:25:18;95662.05;;;8.71;81.24
80568;BME280;69922;45.656;25.586;2023-10-13T04:26:40;95662.95;;;8.71;81.27
80568;BME280;69922;45.656;25.586;2023-10-13T04:28:06;95670.83;;;8.73;81.33
80568;BME280;69922;45.656;25.586;2023-10-13T04:29:21;95669.81;;;8.74;81.35
80568;BME280;69922;45.656;25.586;2023-10-13T04:30:50;95660.70;;;8.75;81.55
80568;BME280;69922;45.656;25.586;2023-10-13T04:32:00;95657.30;;;8.77;81.58
80568;BME280;69922;45.656;25.586;2023-10-13T04:33:05;95660.73;;;8.79;81.58
80568;BME280;69922;45.656;25.586;2023-10-13T04:34:22;95658.19;;;8.79;81.19
80568;BME280;69922;45.656;25.586;2023-10-13T04:35:32;95655.61;;;8.80;81.49
80568;BME280;69922;45.656;25.586;2023-10-13T04:36:43;95662.42;;;8.82;81.32
80568;BME280;69922;45.656;25.586;2023-10-13T04:37:59;95665.02;;;8.84;81.28
80568;BME280;69922;45.656;25.586;2023-10-13T04:39:14;95666.35;;;8.85;81.28
80568;BME280;69922;45.656;25.586;2023-10-13T04:40:23;95670.46;;;8.87;81.33
80568;BME280;69922;45.656;25.586;2023-10-13T04:41:31;95667.59;;;8.88;81.17
80568;BME280;69922;45.656;25.586;2023-10-13T04:42:44;95666.73;;;8.88;81.08
80568;BME280;69922;45.656;25.586;2023-10-13T04:44:00;95660.29;;;8.88;81.01
80568;BME280;69922;45.656;25.586;2023-10-13T04:45:22;95663.21;;;8.90;80.96
80568;BME280;69922;45.656;25.586;2023-10-13T04:46:35;95661.30;;;8.91;81.14
80568;BME280;69922;45.656;25.586;2023-10-13T04:47:58;95669.50;;;8.91;80.84
80568;BME280;69922;45.656;25.586;2023-10-13T04:49:33;95674.24;;;8.91;80.98
80568;BME280;69922;45.656;25.586;2023-10-13T04:51:01;95671.74;;;8.91;80.87
80568;BME280;69922;45.656;25.586;2023-10-13T04:52:24;95678.38;;;8.91;80.94
80568;BME280;69922;45.656;25.586;2023-10-13T04:53:47;95682.17;;;8.92;80.89
80568;BME280;69922;45.656;25.586;2023-10-13T04:55:14;95681.48;;;8.94;80.78
80568;BME280;69922;45.656;25.586;2023-10-13T04:56:36;95680.52;;;8.96;80.91
80568;BME280;69922;45.656;25.586;2023-10-13T04:57:46;95683.21;;;8.98;80.67
80568;BME280;69922;45.656;25.586;2023-10-13T04:58:51;95683.98;;;9.01;80.84
80568;BME280;69922;45.656;25.586;2023-10-13T05:00:15;95689.19;;;9.05;80.69
80568;BME280;69922;45.656;25.586;2023-10-13T05:01:21;95686.46;;;9.07;80.60
80568;BME280;69922;45.656;25.586;2023-10-13T05:02:28;95693.95;;;9.10;80.43
80568;BME280;69922;45.656;25.586;2023-10-13T05:03:58;95701.06;;;9.13;80.38
80568;BME280;69922;45.656;25.586;2023-10-13T05:05:16;95700.09;;;9.16;80.19
80568;BME280;69922;45.656;25.586;2023-10-13T05:06:22;95699.19;;;9.18;80.19
80568;BME280;69922;45.656;25.586;2023-10-13T05:07:46;95697.89;;;9.21;79.85
80568;BME280;69922;45.656;25.586;2023-10-13T05:09:08;95698.48;;;9.24;80.14
80568;BME280;69922;45.656;25.586;2023-10-13T05:10:50;95701.96;;;9.27;80.26
80568;BME280;69922;45.656;25.586;2023-10-13T05:12:12;95701.70;;;9.29;80.40
80568;BME280;69922;45.656;25.586;2023-10-13T05:13:34;95700.94;;;9.32;80.40
80568;BME280;69922;45.656;25.586;2023-10-13T05:14:57;95700.62;;;9.34;80.17
80568;BME280;69922;45.656;25.586;2023-10-13T05:16:19;95697.73;;;9.37;80.28
80568;BME280;69922;45.656;25.586;2023-10-13T05:17:42;95690.56;;;9.41;80.15
80568;BME280;69922;45.656;25.586;2023-10-13T05:19:05;95693.40;;;9.45;79.81
80568;BME280;69922;45.656;25.586;2023-10-13T05:20:28;95696.38;;;9.52;79.89
80568;BME280;69922;45.656;25.586;2023-10-13T05:21:50;95702.11;;;9.59;79.91
80568;BME280;69922;45.656;25.586;2023-10-13T05:23:12;95703.38;;;9.64;79.93
80568;BME280;69922;45.656;25.586;2023-10-13T05:24:35;95705.29;;;9.69;79.80
80568;BME280;69922;45.656;25.586;2023-10-13T05:26:03;95705.36;;;9.74;79.79
80568;BME280;69922;45.656;25.586;2023-10-13T05:27:26;95704.52;;;9.77;79.77
80568;BME280;69922;45.656;25.586;2023-10-13T05:28:48;95706.16;;;9.79;79.82
80568;BME280;69922;45.656;25.586;2023-10-13T05:30:31;95709.48;;;9.82;80.06
80568;BME280;69922;45.656;25.586;2023-10-13T05:31:53;95712.10;;;9.82;80.35
80568;BME280;69922;45.656;25.586;2023-10-13T05:33:16;95710.60;;;9.83;80.49
80568;BME280;69922;45.656;25.586;2023-10-13T05:34:38;95715.52;;;9.85;80.43
80568;BME280;69922;45.656;25.586;2023-10-13T05:36:16;95715.58;;;9.88;80.35
80568;BME280;69922;45.656;25.586;2023-10-13T05:37:39;95714.90;;;9.89;80.38
80568;BME280;69922;45.656;25.586;2023-10-13T05:39:01;95706.64;;;9.92;80.11
80568;BME280;69922;45.656;25.586;2023-10-13T05:40:23;95709.89;;;9.96;80.45
80568;BME280;69922;45.656;25.586;2023-10-13T05:41:46;95712.20;;;10.00;80.37
80568;BME280;69922;45.656;25.586;2023-10-13T05:43:09;95706.85;;;10.04;80.44
80568;BME280;69922;45.656;25.586;2023-10-13T05:44:30;95710.79;;;10.10;80.38
80568;BME280;69922;45.656;25.586;2023-10-13T05:45:42;95710.36;;;10.15;80.10
80568;BME280;69922;45.656;25.586;2023-10-13T05:47:08;95714.95;;;10.22;80.02
80568;BME280;69922;45.656;25.586;2023-10-13T05:48:49;95713.96;;;10.27;80.13
80568;BME280;69922;45.656;25.586;2023-10-13T05:50:02;95718.61;;;10.33;80.31
80568;BME280;69922;45.656;25.586;2023-10-13T05:51:23;95720.89;;;10.41;80.06
80568;BME280;69922;45.656;25.586;2023-10-13T05:52:39;95721.14;;;10.47;79.80
80568;BME280;69922;45.656;25.586;2023-10-13T05:54:04;95719.49;;;10.54;79.37
80568;BME280;69922;45.656;25.586;2023-10-13T05:55:16;95724.26;;;10.60;79.39
80568;BME280;69922;45.656;25.586;2023-10-13T05:56:38;95726.45;;;10.66;79.28
80568;BME280;69922;45.656;25.586;2023-10-13T05:58:01;95730.23;;;10.73;78.66
80568;BME280;69922;45.656;25.586;2023-10-13T05:59:23;95732.36;;;10.75;78.33
80568;BME280;69922;45.656;25.586;2023-10-13T06:00:45;95736.27;;;10.75;77.97
80568;BME280;69922;45.656;25.586;2023-10-13T06:02:08;95735.02;;;10.75;77.73
80568;BME280;69922;45.656;25.586;2023-10-13T06:03:30;95736.25;;;10.75;77.61
80568;BME280;69922;45.656;25.586;2023-10-13T06:04:53;95736.00;;;10.76;77.48
80568;BME280;69922;45.656;25.586;2023-10-13T06:06:15;95737.82;;;10.77;77.35
80568;BME280;69922;45.656;25.586;2023-10-13T06:07:37;95731.46;;;10.80;77.23
80568;BME280;69922;45.656;25.586;2023-10-13T06:08:59;95734.33;;;10.84;77.34
80568;BME280;69922;45.656;25.586;2023-10-13T06:10:22;95740.17;;;10.88;77.03
80568;BME280;69922;45.656;25.586;2023-10-13T06:11:44;95741.02;;;10.91;76.66
80568;BME280;69922;45.656;25.586;2023-10-13T06:13:06;95744.09;;;10.93;76.57
80568;BME280;69922;45.656;25.586;2023-10-13T06:14:29;95746.97;;;10.96;76.33
80568;BME280;69922;45.656;25.586;2023-10-13T06:15:51;95746.35;;;10.97;75.92
80568;BME280;69922;45.656;25.586;2023-10-13T06:17:13;95750.66;;;10.97;75.70
80568;BME280;69922;45.656;25.586;2023-10-13T06:18:36;95754.73;;;10.98;75.77
80568;BME280;69922;45.656;25.586;2023-10-13T06:19:58;95759.38;;;11.00;75.66
80568;BME280;69922;45.656;25.586;2023-10-13T06:21:22;95760.77;;;11.01;75.48
80568;BME280;69922;45.656;25.586;2023-10-13T06:22:48;95765.48;;;11.03;75.59
80568;BME280;69922;45.656;25.586;2023-10-13T06:24:10;95767.58;;;11.04;75.46